EmailTwitter


Observations de surface / Royaume-Uni / EGLL (03772)

Régions: Québec | Canada | États-Unis | Europe | France | UK | Elsewhere
Station
Affichage
Infos & localisation pour EGLL (03772) | Aide pour décoder les METARs

Observations prises le 2017-04-27 à 10H50 UTC à LONDON/HEATHROW, UK (EGLL)

Etat du ciel: partiellement nuageux.

Température: 10.0 Celsius

Point de rosée: -1.0 Celsius

Humidité relative: 46%

Facteur vent: 8.

Vents: Nord-ouest à 17 km/h ou 9 noeuds.

Pression au niveau moyen de la mer: 101.90 kilopascals.

Visibilité horizontale: 6.21 milles terrestres ou 9.94 kilomètres.

Hauteur du plafond: 1219 mètres ( 4000 pieds ).

Observation METAR:

EGLL 271050Z AUTO 30009KT 270V350 9999 BKN040 10/M01 Q1019 NOSIG=